Time;durP1;ratioP1;P1;durP2;ratioP2;P2;SDS_P1;SDS_P2;PMS_P1;PMS_P2;Temp;Humidity;BMP_temperature;BMP_pressure;BME280_temperature;BME280_humidity;BME280_pressure;Samples;Min_cycle;Max_cycle;Signal;HPM_P1;HPM_P2
2023/04/23 00:03:22;;;;;;;;;;;11.40;99.90;;;;;;8395755;28;19908;-77
2023/04/23 00:07:23;;;;;;;;;;;11.20;99.90;;;;;;8379937;28;20399;-77
2023/04/23 00:11:23;;;;;;;;;;;11.20;99.90;;;;;;8377730;28;19917;-77
2023/04/23 00:15:25;;;;;;;;;;;11.10;99.90;;;;;;8395219;28;19920;-77
2023/04/23 00:19:25;;;;;;;;;;;11.10;99.90;;;;;;8395765;28;19916;-77
2023/04/23 00:23:27;;;;;;;;;;;11.10;99.90;;;;;;8394162;28;20007;-77
2023/04/23 00:27:27;;;;;;;;;;;11.00;99.90;;;;;;8394013;28;19979;-78
2023/04/23 00:31:28;;;;;;;;;;;11.00;99.90;;;;;;8395873;28;20347;-77
2023/04/23 00:35:28;;;;;;;;;;;11.00;99.90;;;;;;8395931;28;19920;-78
2023/04/23 00:39:28;;;;;;;;;;;11.00;99.90;;;;;;8398125;28;20027;-78
2023/04/23 00:43:30;;;;;;;;;;;10.90;99.90;;;;;;8396046;28;20368;-77
2023/04/23 00:47:31;;;;;;;;;;;10.80;99.90;;;;;;8392835;28;19912;-78
2023/04/23 00:51:31;;;;;;;;;;;10.70;99.90;;;;;;8395611;28;19932;-78
2023/04/23 00:55:32;;;;;;;;;;;10.70;99.90;;;;;;8399003;28;20010;-77
2023/04/23 00:59:34;;;;;;;;;;;10.60;99.90;;;;;;8377068;28;19938;-77
2023/04/23 01:03:35;;;;;;;;;;;10.60;99.90;;;;;;8393710;28;20369;-77
2023/04/23 01:07:36;;;;;;;;;;;10.60;99.90;;;;;;8394770;28;19999;-77
2023/04/23 01:11:38;;;;;;;;;;;10.60;99.90;;;;;;8393513;28;19923;-78
2023/04/23 01:15:38;;;;;;;;;;;10.50;99.90;;;;;;8397897;28;19912;-77
2023/04/23 01:19:39;;;;;;;;;;;10.60;99.90;;;;;;8394460;28;19924;-77
2023/04/23 01:23:39;;;;;;;;;;;10.60;99.90;;;;;;8393631;28;19912;-77
2023/04/23 01:27:40;;;;;;;;;;;10.60;99.90;;;;;;8393196;28;19913;-77
2023/04/23 01:31:41;;;;;;;;;;;10.80;99.90;;;;;;8395951;28;19920;-77
2023/04/23 01:35:42;;;;;;;;;;;10.90;99.90;;;;;;8395102;28;19912;-77
2023/04/23 01:39:42;;;;;;;;;;;10.80;99.90;;;;;;8394031;28;19913;-77
2023/04/23 01:43:43;;;;;;;;;;;10.90;99.90;;;;;;8394381;28;19916;-77
2023/04/23 01:47:43;;;;;;;;;;;10.80;99.90;;;;;;8393886;28;19927;-77
2023/04/23 01:51:44;;;;;;;;;;;10.70;99.90;;;;;;8393461;28;19923;-78
2023/04/23 01:55:46;;;;;;;;;;;10.70;99.90;;;;;;8394098;28;20328;-76
2023/04/23 01:59:47;;;;;;;;;;;11.00;99.90;;;;;;8396132;28;19935;-76
2023/04/23 02:03:50;;;;;;;;;;;11.10;99.90;;;;;;8390365;28;19909;-76
2023/04/23 02:07:51;;;;;;;;;;;11.00;99.90;;;;;;8390467;28;20168;-76
2023/04/23 02:11:51;;;;;;;;;;;10.90;99.90;;;;;;8390322;28;19913;-77
2023/04/23 02:15:52;;;;;;;;;;;10.80;99.90;;;;;;8372167;28;19920;-77
2023/04/23 02:19:54;;;;;;;;;;;10.70;99.90;;;;;;8390069;28;19916;-77
2023/04/23 02:23:55;;;;;;;;;;;10.70;99.90;;;;;;8390289;28;19913;-77
2023/04/23 02:27:56;;;;;;;;;;;10.80;99.90;;;;;;8395577;28;20440;-77
2023/04/23 02:31:56;;;;;;;;;;;10.90;99.90;;;;;;8394039;28;20394;-77
2023/04/23 02:35:57;;;;;;;;;;;10.80;99.90;;;;;;8392544;28;19958;-77
2023/04/23 02:39:57;;;;;;;;;;;10.90;99.90;;;;;;8390804;28;19917;-77
2023/04/23 02:43:58;;;;;;;;;;;10.80;99.90;;;;;;8390758;28;19920;-78
2023/04/23 02:47:58;;;;;;;;;;;10.90;99.90;;;;;;8394876;28;19948;-77
2023/04/23 02:51:59;;;;;;;;;;;10.90;99.90;;;;;;8396708;28;19916;-77
2023/04/23 02:56:00;;;;;;;;;;;10.80;99.90;;;;;;8380210;28;19920;-77
2023/04/23 03:00:01;;;;;;;;;;;10.60;99.90;;;;;;8393782;28;19919;-77
2023/04/23 03:04:02;;;;;;;;;;;10.60;99.90;;;;;;8394959;28;19921;-77
2023/04/23 03:08:02;;;;;;;;;;;10.50;99.90;;;;;;8389956;28;20380;-77
2023/04/23 03:12:03;;;;;;;;;;;10.70;99.90;;;;;;8392680;28;19920;-77
2023/04/23 03:16:03;;;;;;;;;;;10.70;99.90;;;;;;8390919;28;19948;-77
2023/04/23 03:20:04;;;;;;;;;;;10.60;99.90;;;;;;8391386;28;19927;-77
2023/04/23 03:24:05;;;;;;;;;;;10.50;99.90;;;;;;8391037;28;19994;-77
2023/04/23 03:28:05;;;;;;;;;;;10.60;99.90;;;;;;8374277;28;19920;-77
2023/04/23 03:32:06;;;;;;;;;;;10.60;99.90;;;;;;8394191;28;19912;-77
2023/04/23 03:36:06;;;;;;;;;;;10.70;99.90;;;;;;8390843;28;19935;-77
2023/04/23 03:40:08;;;;;;;;;;;10.70;99.90;;;;;;8393272;28;20384;-77
2023/04/23 03:44:08;;;;;;;;;;;10.50;99.90;;;;;;8390635;28;19913;-76
2023/04/23 03:48:09;;;;;;;;;;;10.50;99.90;;;;;;8389565;28;19981;-76
2023/04/23 03:52:09;;;;;;;;;;;10.50;99.90;;;;;;8391535;28;20324;-77
2023/04/23 03:56:10;;;;;;;;;;;10.40;99.90;;;;;;8401397;28;19920;-77
2023/04/23 04:00:11;;;;;;;;;;;10.30;99.90;;;;;;8396106;28;19913;-76
2023/04/23 04:04:12;;;;;;;;;;;10.30;99.90;;;;;;8390744;28;19931;-78
2023/04/23 04:08:12;;;;;;;;;;;10.30;99.90;;;;;;8389270;28;20003;-77
2023/04/23 04:12:13;;;;;;;;;;;10.40;99.90;;;;;;8389968;28;19916;-77
2023/04/23 04:16:13;;;;;;;;;;;10.30;99.90;;;;;;8389621;28;19923;-77
2023/04/23 04:20:13;;;;;;;;;;;10.30;99.90;;;;;;8389514;28;20384;-77
2023/04/23 04:24:14;;;;;;;;;;;10.30;99.90;;;;;;8371506;28;19919;-77
2023/04/23 04:28:14;;;;;;;;;;;10.20;99.90;;;;;;8388662;28;19917;-77
2023/04/23 04:32:15;;;;;;;;;;;10.20;99.90;;;;;;8392158;28;19921;-78
2023/04/23 04:36:17;;;;;;;;;;;10.20;99.90;;;;;;8390673;28;20428;-77
2023/04/23 04:40:17;;;;;;;;;;;10.10;99.90;;;;;;8395714;28;20400;-78
2023/04/23 04:44:18;;;;;;;;;;;10.20;99.90;;;;;;8375632;28;19912;-77
2023/04/23 04:48:18;;;;;;;;;;;10.10;99.90;;;;;;8375022;28;19916;-78
2023/04/23 04:52:19;;;;;;;;;;;10.10;99.90;;;;;;8394061;28;19954;-77
2023/04/23 04:56:21;;;;;;;;;;;10.20;99.90;;;;;;8377266;28;19912;-77
2023/04/23 05:00:21;;;;;;;;;;;10.20;99.90;;;;;;8399352;28;19944;-77
2023/04/23 05:04:22;;;;;;;;;;;10.30;99.90;;;;;;8398159;28;21015;-77
2023/04/23 05:08:22;;;;;;;;;;;10.40;99.90;;;;;;8394598;28;20014;-78
2023/04/23 05:12:22;;;;;;;;;;;10.40;99.90;;;;;;8399092;28;20377;-77
2023/04/23 05:16:23;;;;;;;;;;;10.60;99.90;;;;;;8397333;28;19912;-77
2023/04/23 05:20:24;;;;;;;;;;;10.70;99.90;;;;;;8396343;28;20457;-77
2023/04/23 05:24:25;;;;;;;;;;;10.80;99.90;;;;;;8398150;28;20344;-77
2023/04/23 05:28:25;;;;;;;;;;;10.80;99.90;;;;;;8394195;28;19924;-78
2023/04/23 05:32:26;;;;;;;;;;;10.90;99.90;;;;;;8394260;28;20023;-77
2023/04/23 05:36:26;;;;;;;;;;;11.30;99.90;;;;;;8388913;28;20003;-77
2023/04/23 05:40:27;;;;;;;;;;;10.90;99.90;;;;;;8387027;28;20399;-77
2023/04/23 05:44:27;;;;;;;;;;;10.90;99.90;;;;;;8401804;28;19913;-77
2023/04/23 05:48:28;;;;;;;;;;;10.80;99.90;;;;;;8378195;28;19934;-78
2023/04/23 05:52:34;;;;;;;;;;;10.80;99.90;;;;;;8401102;28;19919;-78
2023/04/23 05:56:35;;;;;;;;;;;10.80;99.90;;;;;;8399423;28;20284;-78
2023/04/23 06:00:36;;;;;;;;;;;11.00;99.90;;;;;;8395008;28;19920;-78
2023/04/23 06:04:36;;;;;;;;;;;10.60;99.90;;;;;;8401249;28;19995;-78
2023/04/23 06:08:37;;;;;;;;;;;11.20;99.90;;;;;;8381015;28;20370;-78
2023/04/23 06:12:38;;;;;;;;;;;11.20;99.90;;;;;;8392520;28;19912;-78
2023/04/23 06:16:39;;;;;;;;;;;11.30;99.90;;;;;;8400026;28;20442;-77
2023/04/23 06:20:39;;;;;;;;;;;11.40;99.90;;;;;;8395320;28;19924;-77
2023/04/23 06:24:40;;;;;;;;;;;11.50;99.90;;;;;;8398556;28;19913;-78
2023/04/23 06:28:41;;;;;;;;;;;11.70;99.90;;;;;;8402017;28;19916;-77
2023/04/23 06:32:41;;;;;;;;;;;11.90;99.90;;;;;;8394128;28;20373;-78
2023/04/23 06:36:42;;;;;;;;;;;12.20;99.90;;;;;;8385470;28;19920;-75
2023/04/23 06:40:43;;;;;;;;;;;12.60;99.90;;;;;;8388413;28;19912;-79
2023/04/23 06:44:45;;;;;;;;;;;12.70;99.90;;;;;;8370337;28;19915;-77
2023/04/23 06:48:46;;;;;;;;;;;13.00;99.90;;;;;;8383135;28;20331;-78
2023/04/23 06:52:46;;;;;;;;;;;13.10;99.90;;;;;;8390922;28;19959;-77
2023/04/23 06:56:46;;;;;;;;;;;13.30;99.90;;;;;;8365170;28;20007;-78
2023/04/23 07:00:47;;;;;;;;;;;13.40;99.90;;;;;;8384230;28;19919;-77
2023/04/23 07:04:47;;;;;;;;;;;13.30;99.90;;;;;;8383791;28;19921;-77
2023/04/23 07:08:48;;;;;;;;;;;13.20;99.90;;;;;;8382050;28;19916;-77
2023/04/23 07:12:48;;;;;;;;;;;12.90;99.90;;;;;;8387263;28;19952;-77
2023/04/23 07:16:49;;;;;;;;;;;13.00;99.90;;;;;;8373913;28;19913;-79
2023/04/23 07:20:50;;;;;;;;;;;13.10;99.90;;;;;;8425641;28;19928;-86
2023/04/23 07:24:52;;;;;;;;;;;13.50;99.90;;;;;;8421355;28;22347;-86
2023/04/23 07:28:52;;;;;;;;;;;13.80;99.90;;;;;;8418765;28;19915;-86
2023/04/23 07:32:54;;;;;;;;;;;12.70;99.90;;;;;;8412515;28;19921;-87
2023/04/23 07:36:56;;;;;;;;;;;14.70;99.90;;;;;;8419480;28;19912;-86
2023/04/23 07:40:56;;;;;;;;;;;14.10;99.90;;;;;;8417655;28;19921;-86
2023/04/23 07:44:57;;;;;;;;;;;14.40;99.90;;;;;;8415150;28;19936;-86
2023/04/23 07:48:57;;;;;;;;;;;14.90;99.90;;;;;;8422847;28;19930;-86
2023/04/23 07:52:58;;;;;;;;;;;15.40;99.90;;;;;;8419121;28;19975;-88
2023/04/23 07:56:58;;;;;;;;;;;14.70;99.90;;;;;;8422595;28;19916;-87
2023/04/23 08:00:59;;;;;;;;;;;15.80;99.90;;;;;;8418930;28;20055;-87
2023/04/23 08:04:59;;;;;;;;;;;15.70;99.90;;;;;;8404931;28;19912;-87
2023/04/23 08:09:05;;;;;;;;;;;15.70;99.90;;;;;;8409217;28;19931;-87
2023/04/23 08:13:05;;;;;;;;;;;16.30;99.90;;;;;;8399772;28;19983;-88
2023/04/23 08:17:06;;;;;;;;;;;16.50;99.90;;;;;;8408377;28;20017;-87
2023/04/23 08:21:06;;;;;;;;;;;17.30;99.90;;;;;;8394287;28;19920;-88
2023/04/23 08:25:07;;;;;;;;;;;16.90;99.90;;;;;;8398995;28;19920;-87
2023/04/23 08:29:08;;;;;;;;;;;17.10;99.90;;;;;;8405541;28;19920;-88
2023/04/23 08:33:08;;;;;;;;;;;17.50;99.90;;;;;;8414597;28;19908;-87
2023/04/23 08:37:09;;;;;;;;;;;17.70;99.90;;;;;;8412679;28;19916;-88
2023/04/23 08:41:12;;;;;;;;;;;17.50;99.90;;;;;;8415888;28;19950;-86
2023/04/23 08:45:12;;;;;;;;;;;17.60;99.90;;;;;;8418957;28;19897;-85
2023/04/23 08:49:17;;;;;;;;;;;17.90;99.90;;;;;;8417857;28;19924;-85
2023/04/23 08:53:18;;;;;;;;;;;17.20;99.90;;;;;;8386874;28;19920;-77
2023/04/23 08:57:19;;;;;;;;;;;17.50;99.90;;;;;;8390270;28;19913;-77
2023/04/23 09:01:19;;;;;;;;;;;17.60;99.90;;;;;;8367334;23;19948;-78
2023/04/23 09:05:20;;;;;;;;;;;17.30;99.90;;;;;;8338431;28;20345;-78
2023/04/23 09:09:22;;;;;;;;;;;17.20;99.90;;;;;;8321766;28;19957;-79
2023/04/23 09:13:23;;;;;;;;;;;17.40;99.90;;;;;;8342673;28;19919;-79
2023/04/23 09:17:26;;;;;;;;;;;17.80;99.90;;;;;;8344534;28;19921;-79
2023/04/23 09:21:27;;;;;;;;;;;18.40;99.90;;;;;;8322837;28;20008;-80
2023/04/23 09:25:27;;;;;;;;;;;19.10;99.90;;;;;;8307639;28;19925;-78
2023/04/23 09:29:29;;;;;;;;;;;19.30;99.90;;;;;;8332302;28;19917;-78
2023/04/23 09:33:31;;;;;;;;;;;19.60;99.90;;;;;;8328033;28;20397;-78
2023/04/23 09:37:32;;;;;;;;;;;19.60;99.90;;;;;;8334297;28;19913;-80
2023/04/23 09:41:33;;;;;;;;;;;19.40;99.90;;;;;;8332584;28;19920;-78
2023/04/23 09:45:34;;;;;;;;;;;19.60;99.90;;;;;;8336822;28;20435;-79
2023/04/23 09:49:45;;;;;;;;;;;19.80;99.90;;;;;;8333995;28;20385;-79
2023/04/23 09:53:46;;;;;;;;;;;19.80;99.90;;;;;;8320191;28;20342;-79
2023/04/23 09:57:46;;;;;;;;;;;20.50;99.90;;;;;;8320926;28;19917;-79
2023/04/23 10:01:47;;;;;;;;;;;20.40;99.90;;;;;;8320611;28;19970;-79
2023/04/23 10:05:47;;;;;;;;;;;20.50;99.90;;;;;;8322073;28;19909;-80
2023/04/23 10:09:48;;;;;;;;;;;21.00;99.90;;;;;;8315789;28;19925;-79
2023/04/23 10:13:48;;;;;;;;;;;21.10;99.90;;;;;;8322110;28;19913;-79
2023/04/23 10:17:49;;;;;;;;;;;21.30;99.90;;;;;;8311416;28;19992;-78
2023/04/23 10:21:56;;;;;;;;;;;20.90;99.90;;;;;;8309702;28;19913;-78
2023/04/23 10:25:57;;;;;;;;;;;20.30;99.90;;;;;;8321623;28;19956;-78
2023/04/23 10:29:59;;;;;;;;;;;20.50;99.90;;;;;;8321139;28;20013;-79
2023/04/23 10:34:00;;;;;;;;;;;20.50;99.90;;;;;;8321146;28;19917;-78
2023/04/23 10:38:01;;;;;;;;;;;20.80;99.90;;;;;;8321561;28;19932;-79
2023/04/23 10:42:02;;;;;;;;;;;20.70;99.90;;;;;;8322643;28;19921;-79
2023/04/23 10:46:03;;;;;;;;;;;20.70;99.90;;;;;;8319963;28;19913;-79
2023/04/23 10:50:36;;;;;;;;;;;21.70;99.90;;;;;;8326843;28;20012;-80
2023/04/23 10:54:36;;;;;;;;;;;22.40;99.90;;;;;;8289294;28;19917;-79
2023/04/23 10:58:47;;;;;;;;;;;23.20;99.90;;;;;;8353227;28;21272;-80
2023/04/23 11:02:49;;;;;;;;;;;23.00;99.90;;;;;;8315905;28;19925;-79
2023/04/23 11:06:51;;;;;;;;;;;23.30;99.90;;;;;;8325732;28;19924;-78
2023/04/23 11:10:56;;;;;;;;;;;23.90;99.90;;;;;;8314091;28;20418;-79
2023/04/23 11:15:00;;;;;;;;;;;23.10;99.90;;;;;;8330614;28;19917;-80
2023/04/23 11:19:14;;;;;;;;;;;23.40;99.90;;;;;;8330370;28;19913;-81
2023/04/23 11:23:28;;;;;;;;;;;24.30;99.90;;;;;;8318791;28;19917;-81
2023/04/23 11:27:29;;;;;;;;;;;23.70;99.80;;;;;;8328042;28;19921;-79
2023/04/23 11:31:29;;;;;;;;;;;22.60;99.90;;;;;;8313657;28;20425;-80
2023/04/23 11:35:38;;;;;;;;;;;22.30;99.90;;;;;;8311406;28;19963;-80
2023/04/23 11:39:40;;;;;;;;;;;22.70;99.90;;;;;;8311635;28;19987;-80
2023/04/23 11:43:42;;;;;;;;;;;22.90;99.90;;;;;;8333073;28;20226;-80
2023/04/23 11:47:43;;;;;;;;;;;23.10;99.90;;;;;;8318759;28;19961;-80
2023/04/23 11:51:44;;;;;;;;;;;23.30;99.90;;;;;;8327297;28;20362;-80
2023/04/23 11:55:47;;;;;;;;;;;23.20;98.40;;;;;;8343605;28;19921;-82
2023/04/23 11:59:48;;;;;;;;;;;22.70;99.90;;;;;;8327157;28;20606;-83
2023/04/23 12:03:48;;;;;;;;;;;22.60;99.90;;;;;;8317974;28;19913;-80
2023/04/23 12:07:50;;;;;;;;;;;22.80;99.90;;;;;;8328129;28;19924;-79
2023/04/23 12:11:50;;;;;;;;;;;23.60;97.70;;;;;;8312268;28;19921;-81
2023/04/23 12:15:55;;;;;;;;;;;23.60;99.90;;;;;;8329846;28;19959;-81
2023/04/23 12:19:55;;;;;;;;;;;24.70;96.80;;;;;;8330506;28;19913;-81
2023/04/23 12:23:56;;;;;;;;;;;26.60;97.30;;;;;;8329148;28;19920;-80
2023/04/23 12:28:01;;;;;;;;;;;26.60;93.20;;;;;;8328550;28;19940;-81
2023/04/23 12:32:01;;;;;;;;;;;25.00;95.10;;;;;;8315409;28;19917;-80
2023/04/23 12:36:02;;;;;;;;;;;24.30;96.10;;;;;;8316272;28;19921;-82
2023/04/23 12:40:06;;;;;;;;;;;23.80;99.70;;;;;;8339009;28;20346;-81
2023/04/23 12:44:06;;;;;;;;;;;23.60;98.20;;;;;;8313770;28;20000;-81
2023/04/23 12:48:07;;;;;;;;;;;25.10;99.20;;;;;;8315420;28;19936;-81
2023/04/23 12:52:07;;;;;;;;;;;26.40;92.50;;;;;;8316296;28;19923;-80
2023/04/23 12:56:08;;;;;;;;;;;26.60;91.00;;;;;;8336195;28;19921;-81
2023/04/23 13:00:09;;;;;;;;;;;25.90;93.00;;;;;;8336643;28;20326;-81
2023/04/23 13:04:09;;;;;;;;;;;26.90;91.10;;;;;;8309976;28;19944;-81
2023/04/23 13:08:10;;;;;;;;;;;27.00;91.10;;;;;;8311031;28;19920;-80
2023/04/23 13:12:11;;;;;;;;;;;27.90;86.70;;;;;;8337220;28;19950;-81
2023/04/23 13:16:11;;;;;;;;;;;27.40;86.70;;;;;;8329630;28;19997;-80
2023/04/23 13:20:12;;;;;;;;;;;27.00;80.90;;;;;;8309269;28;19928;-83
2023/04/23 13:24:12;;;;;;;;;;;25.40;90.10;;;;;;8334214;28;19920;-81
2023/04/23 13:28:13;;;;;;;;;;;25.70;86.40;;;;;;8317224;28;19932;-80
2023/04/23 13:32:15;;;;;;;;;;;25.40;90.60;;;;;;8315387;28;19971;-82
2023/04/23 13:36:15;;;;;;;;;;;26.30;87.40;;;;;;8322634;28;19928;-79
2023/04/23 13:40:16;;;;;;;;;;;26.10;84.60;;;;;;8331895;28;20340;-81
2023/04/23 13:44:16;;;;;;;;;;;24.30;94.70;;;;;;8324926;28;19977;-79
2023/04/23 13:48:17;;;;;;;;;;;25.90;92.60;;;;;;8314009;28;19943;-81
2023/04/23 13:52:17;;;;;;;;;;;26.90;89.60;;;;;;8330434;28;20409;-81
2023/04/23 13:56:18;;;;;;;;;;;27.10;86.60;;;;;;8335934;28;19921;-81
2023/04/23 14:00:18;;;;;;;;;;;27.30;85.30;;;;;;8317310;28;19925;-81
2023/04/23 14:04:19;;;;;;;;;;;27.10;85.50;;;;;;8298198;28;19921;-82
2023/04/23 14:08:20;;;;;;;;;;;27.90;80.90;;;;;;8324594;28;19983;-81
2023/04/23 14:12:22;;;;;;;;;;;28.10;77.50;;;;;;8313641;28;19954;-81
2023/04/23 14:16:23;;;;;;;;;;;27.30;79.10;;;;;;8315339;28;20389;-80
2023/04/23 14:20:24;;;;;;;;;;;27.40;87.70;;;;;;8329140;28;19982;-82
2023/04/23 14:24:31;;;;;;;;;;;28.60;73.80;;;;;;8324758;28;20566;-81
2023/04/23 14:28:33;;;;;;;;;;;29.10;73.70;;;;;;8334980;28;19944;-82
2023/04/23 14:32:33;;;;;;;;;;;30.50;68.40;;;;;;8331285;28;20012;-82
2023/04/23 14:36:34;;;;;;;;;;;30.80;62.20;;;;;;8315036;28;20500;-82
2023/04/23 14:40:34;;;;;;;;;;;28.70;73.40;;;;;;8315854;28;19923;-82
2023/04/23 14:44:35;;;;;;;;;;;28.20;69.80;;;;;;8323905;28;19913;-82
2023/04/23 14:48:35;;;;;;;;;;;28.90;70.30;;;;;;8337348;28;20000;-82
2023/04/23 14:52:36;;;;;;;;;;;27.20;74.40;;;;;;8318847;28;20480;-82
2023/04/23 14:56:36;;;;;;;;;;;25.70;79.90;;;;;;8313262;28;19956;-82
2023/04/23 15:00:37;;;;;;;;;;;25.00;80.40;;;;;;8331753;28;19917;-82
2023/04/23 15:04:37;;;;;;;;;;;24.80;84.70;;;;;;8331033;28;19917;-80
2023/04/23 15:08:38;;;;;;;;;;;24.70;81.50;;;;;;8312013;28;20015;-81
2023/04/23 15:12:38;;;;;;;;;;;23.40;87.60;;;;;;8313178;28;19996;-82
2023/04/23 15:16:39;;;;;;;;;;;24.90;82.30;;;;;;8331675;28;19913;-82
2023/04/23 15:20:40;;;;;;;;;;;25.90;79.30;;;;;;8315158;28;19945;-80
2023/04/23 15:24:40;;;;;;;;;;;25.80;77.00;;;;;;8337100;28;19921;-81
2023/04/23 15:28:41;;;;;;;;;;;25.10;77.30;;;;;;8332649;28;19913;-81
2023/04/23 15:32:41;;;;;;;;;;;24.40;79.90;;;;;;8308995;28;19920;-82
2023/04/23 15:36:42;;;;;;;;;;;23.50;83.20;;;;;;8328666;28;19992;-80
2023/04/23 15:40:49;;;;;;;;;;;22.30;87.20;;;;;;8347834;28;19920;-82
2023/04/23 15:44:50;;;;;;;;;;;21.30;91.00;;;;;;8309945;28;19918;-81
2023/04/23 15:48:50;;;;;;;;;;;20.60;91.30;;;;;;8340277;22;19925;-77
2023/04/23 15:52:50;;;;;;;;;;;20.30;93.60;;;;;;8297300;28;19913;-77
2023/04/23 15:56:51;;;;;;;;;;;20.20;95.30;;;;;;8319527;28;19920;-77
2023/04/23 16:00:51;;;;;;;;;;;19.80;96.40;;;;;;8310250;28;19933;-78
2023/04/23 16:04:52;;;;;;;;;;;19.40;98.00;;;;;;8323355;28;19919;-79
2023/04/23 16:08:52;;;;;;;;;;;19.10;98.80;;;;;;8301014;28;19978;-78
2023/04/23 16:12:53;;;;;;;;;;;18.60;99.90;;;;;;8302791;28;19963;-77
2023/04/23 16:16:54;;;;;;;;;;;18.20;99.90;;;;;;8320536;28;19913;-76
2023/04/23 16:20:54;;;;;;;;;;;17.70;99.90;;;;;;8306716;28;20017;-76
2023/04/23 16:24:55;;;;;;;;;;;16.00;99.90;;;;;;8321962;28;19909;-76
2023/04/23 16:28:56;;;;;;;;;;;15.30;99.90;;;;;;8304057;28;20270;-77
2023/04/23 16:32:56;;;;;;;;;;;15.10;99.90;;;;;;8323591;28;20375;-77
2023/04/23 16:36:57;;;;;;;;;;;15.20;99.90;;;;;;8311337;28;19913;-77
2023/04/23 16:40:57;;;;;;;;;;;15.30;99.90;;;;;;8310900;28;19917;-77
2023/04/23 16:44:58;;;;;;;;;;;15.20;99.90;;;;;;8310566;28;19909;-77
2023/04/23 16:48:58;;;;;;;;;;;15.20;99.90;;;;;;8310526;28;19921;-77
2023/04/23 16:52:59;;;;;;;;;;;15.10;99.90;;;;;;8310005;28;19913;-79
2023/04/23 16:57:00;;;;;;;;;;;15.00;99.90;;;;;;8327288;28;20369;-78
2023/04/23 17:01:00;;;;;;;;;;;14.80;99.90;;;;;;8309982;28;19913;-77
2023/04/23 17:05:01;;;;;;;;;;;14.80;99.90;;;;;;8309150;28;19956;-77
2023/04/23 17:09:03;;;;;;;;;;;14.80;99.90;;;;;;8306100;28;19928;-77
2023/04/23 17:13:04;;;;;;;;;;;14.90;99.90;;;;;;8308736;28;20381;-78
2023/04/23 17:17:04;;;;;;;;;;;14.90;99.90;;;;;;8331865;28;19913;-77
2023/04/23 17:21:05;;;;;;;;;;;14.90;99.90;;;;;;8322591;28;19935;-78
2023/04/23 17:25:05;;;;;;;;;;;14.90;99.90;;;;;;8300386;28;19918;-76
2023/04/23 17:29:06;;;;;;;;;;;14.70;99.90;;;;;;8302954;28;20732;-77
2023/04/23 17:33:06;;;;;;;;;;;14.70;99.90;;;;;;8318724;28;19940;-77
2023/04/23 17:37:07;;;;;;;;;;;14.60;99.90;;;;;;8317156;28;19917;-76
2023/04/23 17:41:07;;;;;;;;;;;14.60;99.90;;;;;;8300470;28;19913;-77
2023/04/23 17:45:08;;;;;;;;;;;14.50;99.90;;;;;;8316968;28;19913;-77
2023/04/23 17:49:09;;;;;;;;;;;14.30;99.90;;;;;;8320742;28;20016;-78
2023/04/23 17:53:09;;;;;;;;;;;14.20;99.90;;;;;;8294696;28;20373;-77
2023/04/23 17:57:10;;;;;;;;;;;13.90;99.90;;;;;;8308449;28;20008;-78
2023/04/23 18:01:11;;;;;;;;;;;13.60;99.90;;;;;;8309501;28;19940;-77
2023/04/23 18:05:13;;;;;;;;;;;13.60;99.90;;;;;;8309618;28;19921;-78
2023/04/23 18:09:13;;;;;;;;;;;13.50;99.90;;;;;;8295177;28;19921;-78
2023/04/23 18:13:14;;;;;;;;;;;13.50;99.90;;;;;;8300335;28;19917;-78
2023/04/23 18:17:16;;;;;;;;;;;13.70;99.90;;;;;;8316796;28;19932;-76
2023/04/23 18:21:17;;;;;;;;;;;13.50;99.90;;;;;;8292663;28;19921;-75
2023/04/23 18:25:18;;;;;;;;;;;13.30;99.90;;;;;;8298942;28;19924;-76
2023/04/23 18:29:18;;;;;;;;;;;13.10;99.90;;;;;;8295965;28;20583;-76
2023/04/23 18:33:37;;;;;;;;;;;12.80;99.90;;;;;;8297458;28;19917;-78
2023/04/23 18:37:42;;;;;;;;;;;12.80;99.90;;;;;;8321468;28;20383;-76
2023/04/23 18:41:42;;;;;;;;;;;12.80;99.90;;;;;;8326264;28;19946;-77
2023/04/23 18:45:43;;;;;;;;;;;12.90;99.90;;;;;;8317206;28;19952;-77
2023/04/23 18:49:44;;;;;;;;;;;12.90;99.90;;;;;;8320669;28;19925;-76
2023/04/23 18:53:45;;;;;;;;;;;12.80;99.90;;;;;;8323726;28;19962;-77
2023/04/23 18:57:46;;;;;;;;;;;13.00;99.90;;;;;;8322457;28;19960;-76
2023/04/23 19:01:46;;;;;;;;;;;12.90;99.90;;;;;;8331753;28;19933;-77
2023/04/23 19:05:47;;;;;;;;;;;12.80;99.90;;;;;;8307869;28;19932;-77
2023/04/23 19:09:47;;;;;;;;;;;12.80;99.90;;;;;;8305121;28;19920;-76
2023/04/23 19:13:48;;;;;;;;;;;12.60;99.90;;;;;;8309867;28;20024;-76
2023/04/23 19:17:48;;;;;;;;;;;12.50;99.90;;;;;;8332705;28;20365;-76
2023/04/23 19:21:49;;;;;;;;;;;12.60;99.90;;;;;;8311616;28;20715;-77
2023/04/23 19:25:50;;;;;;;;;;;12.50;99.90;;;;;;8323866;28;19924;-76
2023/04/23 19:29:53;;;;;;;;;;;12.30;99.90;;;;;;8321271;28;19917;-76
2023/04/23 19:33:53;;;;;;;;;;;12.30;99.90;;;;;;8313936;28;20008;-81
2023/04/23 19:37:54;;;;;;;;;;;12.60;99.90;;;;;;8336951;28;20580;-82
2023/04/23 19:41:54;;;;;;;;;;;12.50;99.90;;;;;;8316879;28;19923;-82
2023/04/23 19:45:55;;;;;;;;;;;12.60;99.90;;;;;;8319178;28;20404;-76
2023/04/23 19:49:55;;;;;;;;;;;12.70;99.90;;;;;;8324601;28;19916;-76
2023/04/23 19:53:57;;;;;;;;;;;12.70;99.90;;;;;;8334937;28;19932;-77
2023/04/23 19:57:57;;;;;;;;;;;12.60;99.90;;;;;;8331526;28;19974;-76
2023/04/23 20:01:58;;;;;;;;;;;12.30;99.90;;;;;;8312186;28;20273;-76
2023/04/23 20:05:58;;;;;;;;;;;12.00;99.90;;;;;;8335771;28;20445;-75
2023/04/23 20:09:59;;;;;;;;;;;11.90;99.90;;;;;;8328384;28;20366;-76
2023/04/23 20:14:00;;;;;;;;;;;11.80;99.90;;;;;;8328715;28;20398;-76
2023/04/23 20:18:00;;;;;;;;;;;11.60;99.90;;;;;;8326086;28;19917;-76
2023/04/23 20:22:01;;;;;;;;;;;11.40;99.90;;;;;;8309905;28;19999;-76
2023/04/23 20:26:01;;;;;;;;;;;11.20;99.90;;;;;;8310362;28;20404;-76
2023/04/23 20:30:03;;;;;;;;;;;11.20;99.90;;;;;;8328396;28;19996;-77
2023/04/23 20:34:03;;;;;;;;;;;11.10;99.90;;;;;;8310044;28;19917;-78
2023/04/23 20:38:04;;;;;;;;;;;11.00;99.90;;;;;;8330286;28;20212;-76
2023/04/23 20:42:05;;;;;;;;;;;11.00;99.90;;;;;;8309400;28;19916;-77
2023/04/23 20:46:05;;;;;;;;;;;11.00;99.90;;;;;;8305495;28;19967;-76
2023/04/23 20:50:07;;;;;;;;;;;10.90;99.90;;;;;;8320808;28;19929;-76
2023/04/23 20:54:07;;;;;;;;;;;10.90;99.90;;;;;;8326449;28;19963;-77
2023/04/23 20:58:08;;;;;;;;;;;10.90;99.90;;;;;;8308548;28;19992;-76
2023/04/23 21:02:11;;;;;;;;;;;10.80;99.90;;;;;;8301127;28;19913;-76
2023/04/23 21:06:12;;;;;;;;;;;10.80;99.90;;;;;;8310912;28;19916;-77
2023/04/23 21:10:12;;;;;;;;;;;10.70;99.90;;;;;;8305751;28;19917;-76
2023/04/23 21:14:12;;;;;;;;;;;10.80;99.90;;;;;;8324877;28;19909;-78
2023/04/23 21:18:13;;;;;;;;;;;10.80;99.90;;;;;;8305568;28;20525;-77
2023/04/23 21:22:13;;;;;;;;;;;10.70;99.90;;;;;;8310472;28;19913;-77
2023/04/23 21:26:14;;;;;;;;;;;10.70;99.90;;;;;;8309956;28;19988;-77
2023/04/23 21:30:23;;;;;;;;;;;10.40;99.90;;;;;;8310080;28;19913;-77
2023/04/23 21:34:23;;;;;;;;;;;10.40;99.90;;;;;;8329049;28;20290;-77
2023/04/23 21:38:24;;;;;;;;;;;10.40;99.90;;;;;;8312021;28;19909;-78
2023/04/23 21:42:24;;;;;;;;;;;10.40;99.90;;;;;;8313696;28;21824;-77
2023/04/23 21:46:25;;;;;;;;;;;10.30;99.90;;;;;;8310455;28;19999;-77
2023/04/23 21:50:27;;;;;;;;;;;10.30;99.90;;;;;;8347454;23;20535;-76
2023/04/23 21:54:27;;;;;;;;;;;10.10;99.90;;;;;;8259457;28;19961;-76
2023/04/23 21:58:30;;;;;;;;;;;10.00;99.90;;;;;;8262050;28;19922;-76
2023/04/23 22:02:31;;;;;;;;;;;10.00;99.90;;;;;;8256607;28;19945;-76
2023/04/23 22:06:33;;;;;;;;;;;10.10;99.90;;;;;;8259806;28;20275;-77
2023/04/23 22:10:33;;;;;;;;;;;10.10;99.90;;;;;;8261560;28;20386;-77
2023/04/23 22:14:34;;;;;;;;;;;10.10;99.90;;;;;;8258590;28;19913;-77
2023/04/23 22:18:35;;;;;;;;;;;10.00;99.90;;;;;;8264576;28;19917;-77
2023/04/23 22:22:36;;;;;;;;;;;10.00;99.90;;;;;;8262098;28;19910;-77
2023/04/23 22:26:37;;;;;;;;;;;10.00;99.90;;;;;;8257249;28;19910;-77
2023/04/23 22:30:37;;;;;;;;;;;10.00;99.90;;;;;;8259607;28;19918;-77
2023/04/23 22:34:38;;;;;;;;;;;10.00;99.90;;;;;;8259488;28;19976;-78
2023/04/23 22:38:38;;;;;;;;;;;10.00;99.90;;;;;;8264592;28;19921;-77
2023/04/23 22:42:39;;;;;;;;;;;10.00;99.90;;;;;;8262114;28;19914;-79
2023/04/23 22:46:39;;;;;;;;;;;10.00;99.90;;;;;;8264065;28;19968;-78
2023/04/23 22:50:41;;;;;;;;;;;10.00;99.90;;;;;;8263565;28;19921;-78
2023/04/23 22:54:42;;;;;;;;;;;10.00;99.90;;;;;;8268954;28;19914;-77
2023/04/23 22:58:42;;;;;;;;;;;10.00;99.90;;;;;;8266233;28;19918;-76
2023/04/23 23:02:42;;;;;;;;;;;10.00;99.90;;;;;;8264057;28;20008;-77
2023/04/23 23:06:45;;;;;;;;;;;10.00;99.90;;;;;;8260341;28;19914;-77
2023/04/23 23:10:45;;;;;;;;;;;9.90;99.90;;;;;;8262661;28;19920;-77
2023/04/23 23:14:45;;;;;;;;;;;9.90;99.90;;;;;;8261646;28;19922;-77
2023/04/23 23:18:46;;;;;;;;;;;9.80;99.90;;;;;;8264609;28;20679;-77
2023/04/23 23:22:46;;;;;;;;;;;9.90;99.90;;;;;;8260962;28;19910;-77